Time;durP1;ratioP1;P1;durP2;ratioP2;P2;SDS_P1;SDS_P2;PMS_P1;PMS_P2;Temp;Humidity;BMP_temperature;BMP_pressure;BME280_temperature;BME280_humidity;BME280_pressure;Samples;Min_cycle;Max_cycle;Signal;HPM_P1;HPM_P2
2022/03/19 00:01:33;;;;;;;18.85;12.38;;;;;;;9.94;48.40;100379.06;4964914;28;20034;-66
2022/03/19 00:03:58;;;;;;;18.00;11.85;;;;;;;9.76;50.55;100373.25;4964071;28;20037;-66
2022/03/19 00:06:24;;;;;;;15.23;12.05;;;;;;;9.61;52.62;100369.88;4959422;28;20062;-66
2022/03/19 00:08:50;;;;;;;19.63;12.75;;;;;;;9.68;52.39;100378.13;4947481;28;20115;-65
2022/03/19 00:11:15;;;;;;;16.15;11.90;;;;;;;9.59;53.10;100383.88;4964956;28;20164;-66
2022/03/19 00:13:41;;;;;;;18.15;12.73;;;;;;;9.47;53.64;100376.84;4948588;28;20110;-65
2022/03/19 00:16:06;;;;;;;17.40;12.15;;;;;;;9.53;53.52;100377.31;4967934;28;20502;-66
2022/03/19 00:18:32;;;;;;;17.65;12.18;;;;;;;9.58;53.16;100384.81;4984803;28;20410;-67
2022/03/19 00:20:57;;;;;;;20.45;11.98;;;;;;;9.55;52.40;100382.41;4953781;28;20031;-66
2022/03/19 00:23:23;;;;;;;19.08;12.10;;;;;;;9.72;53.59;100391.75;4985730;28;20034;-66
2022/03/19 00:25:48;;;;;;;21.00;12.80;;;;;;;9.72;54.71;100384.78;4956905;28;20031;-65
2022/03/19 00:28:18;;;;;;;16.92;12.20;;;;;;;9.80;51.74;100389.50;4948518;28;20522;-66
2022/03/19 00:30:45;;;;;;;17.02;11.88;;;;;;;9.84;51.36;100385.78;4965812;28;20030;-66
2022/03/19 00:33:11;;;;;;;17.23;11.77;;;;;;;9.47;51.81;100343.91;4963808;28;20040;-66
2022/03/19 00:35:37;;;;;;;18.23;12.20;;;;;;;9.77;51.71;100395.72;4980234;28;20094;-66
2022/03/19 00:38:04;;;;;;;18.58;12.02;;;;;;;9.73;51.74;100394.25;4992140;28;20042;-66
2022/03/19 00:40:30;;;;;;;17.27;11.70;;;;;;;9.53;52.38;100356.53;4952699;28;20027;-67
2022/03/19 00:42:56;;;;;;;20.15;12.13;;;;;;;9.86;52.68;100398.69;4953168;28;20443;-66
2022/03/19 00:45:21;;;;;;;18.25;11.52;;;;;;;9.84;52.10;100393.59;4952985;28;20046;-68
2022/03/19 00:47:47;;;;;;;17.45;11.02;;;;;;;9.77;52.26;100398.31;4938420;28;20063;-66
2022/03/19 00:50:13;;;;;;;17.38;11.93;;;;;;;9.72;53.93;100404.75;4966887;28;20101;-64
2022/03/19 00:52:39;;;;;;;16.98;12.13;;;;;;;9.46;54.12;100368.22;4955021;28;20439;-66
2022/03/19 00:55:05;;;;;;;17.35;12.18;;;;;;;9.55;54.11;100405.78;4974219;28;20041;-66
2022/03/19 00:57:57;;;;;;;18.50;12.63;;;;;;;9.65;53.23;100395.66;4962859;28;20058;-66
2022/03/19 01:00:26;;;;;;;17.27;11.80;;;;;;;9.50;53.86;100387.06;4961017;28;20163;-66
2022/03/19 01:02:53;;;;;;;17.48;11.85;;;;;;;9.58;53.55;100384.81;4953962;28;20034;-66
2022/03/19 01:05:20;;;;;;;17.92;11.93;;;;;;;9.66;53.25;100395.56;4954054;28;20041;-66
2022/03/19 01:07:50;;;;;;;18.38;12.52;;;;;;;9.67;54.18;100386.00;4948412;28;20069;-66
2022/03/19 01:10:18;;;;;;;19.88;11.73;;;;;;;9.66;54.01;100384.34;4962630;28;20030;-66
2022/03/19 01:12:43;;;;;;;17.10;12.02;;;;;;;9.42;54.68;100351.19;4946964;28;20170;-66
2022/03/19 01:15:09;;;;;;;16.50;11.65;;;;;;;9.66;55.72;100381.75;4963251;28;20494;-66
2022/03/19 01:17:36;;;;;;;18.52;12.35;;;;;;;9.67;55.71;100391.19;4960018;28;20565;-66
2022/03/19 01:20:02;;;;;;;18.15;12.15;;;;;;;9.72;56.05;100389.97;4957903;28;20026;-66
2022/03/19 01:22:28;;;;;;;17.20;11.48;;;;;;;9.65;55.83;100385.25;4958716;28;20030;-66
2022/03/19 01:24:55;;;;;;;18.55;12.27;;;;;;;9.61;55.83;100387.22;4964323;28;20636;-65
2022/03/19 01:27:20;;;;;;;20.55;12.43;;;;;;;9.34;55.21;100348.19;4959315;28;20084;-66
2022/03/19 01:29:46;;;;;;;18.55;11.77;;;;;;;9.64;55.35;100384.44;4948181;28;20034;-66
2022/03/19 01:32:12;;;;;;;19.42;11.93;;;;;;;9.67;53.89;100391.19;4963199;28;20022;-66
2022/03/19 01:34:37;;;;;;;17.98;12.10;;;;;;;9.60;53.48;100386.38;4962777;28;20069;-65
2022/03/19 01:37:03;;;;;;;18.60;11.60;;;;;;;9.40;53.50;100377.22;4964681;28;20014;-66
2022/03/19 01:39:28;;;;;;;18.00;11.43;;;;;;;9.30;53.43;100352.75;4946989;28;20405;-66
2022/03/19 01:41:54;;;;;;;17.50;11.65;;;;;;;9.47;54.89;100371.66;4963602;28;20023;-66
2022/03/19 01:44:20;;;;;;;17.48;11.23;;;;;;;9.35;56.13;100384.47;4962560;28;20077;-65
2022/03/19 01:47:10;;;;;;;17.23;12.32;;;;;;;9.07;57.89;100377.50;4964229;28;20042;-67
2022/03/19 01:49:36;;;;;;;14.75;10.95;;;;;;;9.12;58.39;100382.41;4947548;28;20027;-66
2022/03/19 01:52:03;;;;;;;16.80;11.65;;;;;;;9.09;58.76;100378.25;4988634;28;20037;-65
2022/03/19 01:54:36;;;;;;;15.77;11.75;;;;;;;9.14;58.87;100380.56;4957281;28;20097;-64
2022/03/19 01:57:02;;;;;;;19.27;11.43;;;;;;;9.09;58.40;100361.84;4983588;28;20422;-66
2022/03/19 01:59:31;;;;;;;16.95;11.68;;;;;;;9.19;58.65;100368.16;4972970;28;20031;-67
2022/03/19 02:01:57;;;;;;;18.27;12.32;;;;;;;9.08;59.43;100368.78;4946973;28;20027;-66
2022/03/19 02:04:22;;;;;;;17.58;11.60;;;;;;;8.97;59.94;100368.59;4950997;28;20092;-66
2022/03/19 02:06:48;;;;;;;16.83;11.90;;;;;;;9.14;58.90;100372.78;4946972;28;20041;-66
2022/03/19 02:09:14;;;;;;;19.17;12.52;;;;;;;9.17;58.36;100354.44;4961406;28;20122;-66
2022/03/19 02:11:39;;;;;;;17.30;12.45;;;;;;;8.98;58.59;100320.97;4962403;28;20106;-66
2022/03/19 02:14:05;;;;;;;18.50;11.70;;;;;;;9.28;58.15;100362.41;4985763;28;20023;-66
2022/03/19 02:16:30;;;;;;;16.95;11.95;;;;;;;9.21;58.57;100361.09;4961742;28;20030;-65
2022/03/19 02:19:02;;;;;;;17.35;12.35;;;;;;;9.26;58.20;100369.44;4961536;28;20126;-66
2022/03/19 02:21:41;;;;;;;17.88;13.15;;;;;;;9.24;57.29;100366.94;4963282;28;20042;-66
2022/03/19 02:26:51;;;;;;;19.95;13.45;;;;;;;9.25;56.56;100362.56;4962156;28;20037;-66
2022/03/19 02:29:17;;;;;;;18.15;12.68;;;;;;;8.96;56.79;100328.88;4953873;28;20046;-66
2022/03/19 02:31:44;;;;;;;19.25;13.07;;;;;;;9.12;56.87;100352.09;4958618;28;20027;-66
2022/03/19 02:34:10;;;;;;;16.42;11.65;;;;;;;9.16;57.03;100365.72;4991469;28;20038;-65
2022/03/19 02:36:36;;;;;;;15.82;11.98;;;;;;;8.98;56.98;100363.34;4960844;28;20034;-65
2022/03/19 02:39:13;;;;;;;14.05;10.90;;;;;;;8.75;56.44;100324.94;4963348;28;20030;-65
2022/03/19 02:41:46;;;;;;;17.35;10.45;;;;;;;9.12;55.63;100369.44;4968598;28;20038;-66
2022/03/19 02:44:12;;;;;;;15.45;10.50;;;;;;;9.15;55.81;100357.13;4961177;28;20034;-65
2022/03/19 02:46:38;;;;;;;22.35;11.63;;;;;;;9.09;56.09;100360.09;4962003;28;20141;-66
2022/03/19 02:49:03;;;;;;;17.17;11.10;;;;;;;9.09;56.27;100354.06;4960976;28;20541;-65
2022/03/19 02:51:29;;;;;;;20.48;10.98;;;;;;;9.08;55.55;100358.41;4963416;28;20106;-66
2022/03/19 02:53:54;;;;;;;22.15;11.90;;;;;;;9.00;55.73;100348.50;4959561;28;20043;-66
2022/03/19 02:56:20;;;;;;;15.88;10.85;;;;;;;8.84;55.58;100320.03;4946885;28;20035;-65
2022/03/19 02:58:45;;;;;;;15.75;10.65;;;;;;;8.99;55.65;100349.41;4961459;28;20027;-65
2022/03/19 03:01:11;;;;;;;15.82;11.32;;;;;;;8.83;55.95;100346.06;4947007;28;20659;-66
2022/03/19 03:03:36;;;;;;;15.98;10.48;;;;;;;8.97;56.33;100351.28;4945685;28;20037;-66
2022/03/19 03:06:02;;;;;;;16.95;10.82;;;;;;;8.91;56.18;100351.66;4944616;28;20027;-66
2022/03/19 03:08:28;;;;;;;17.40;11.27;;;;;;;8.88;56.64;100338.84;4964731;28;20053;-66
2022/03/19 03:10:53;;;;;;;18.30;11.82;;;;;;;8.92;56.19;100350.69;4962922;28;20810;-66
2022/03/19 03:13:19;;;;;;;17.95;12.43;;;;;;;8.92;56.09;100347.28;4963497;28;20039;-65
2022/03/19 03:15:45;;;;;;;16.92;12.05;;;;;;;8.88;56.05;100338.03;4958715;28;20826;-67
2022/03/19 03:18:10;;;;;;;19.55;12.20;;;;;;;8.90;55.77;100346.53;4963152;28;20035;-67
2022/03/19 03:20:36;;;;;;;18.75;12.25;;;;;;;8.69;55.61;100320.09;4961829;28;20658;-66
2022/03/19 03:23:01;;;;;;;15.60;11.65;;;;;;;8.81;56.24;100353.09;4962080;28;20034;-65
2022/03/19 03:25:26;;;;;;;18.00;12.45;;;;;;;8.59;56.23;100305.09;4994766;28;20085;-66
2022/03/19 03:27:52;;;;;;;19.60;12.30;;;;;;;8.81;56.58;100350.50;4940665;28;20502;-65
2022/03/19 03:30:20;;;;;;;19.58;11.93;;;;;;;8.63;56.84;100361.06;4943281;28;20466;-65
2022/03/19 03:32:46;;;;;;;18.17;12.32;;;;;;;8.62;57.49;100363.75;4962417;28;20038;-66
2022/03/19 03:35:12;;;;;;;18.63;11.77;;;;;;;8.54;57.79;100359.00;4971695;28;20026;-66
2022/03/19 03:37:37;;;;;;;17.50;11.52;;;;;;;8.39;58.08;100354.66;4963820;28;20379;-66
2022/03/19 03:40:04;;;;;;;20.65;12.20;;;;;;;8.34;57.47;100343.72;4945652;28;20027;-65
2022/03/19 03:42:30;;;;;;;21.70;12.65;;;;;;;8.46;56.15;100356.84;4960785;28;20107;-67
2022/03/19 03:44:58;;;;;;;18.70;12.50;;;;;;;8.45;56.20;100341.38;4960092;28;20487;-65
2022/03/19 03:47:25;;;;;;;20.17;12.05;;;;;;;8.50;56.02;100359.25;4963118;28;20046;-66
2022/03/19 03:49:52;;;;;;;19.92;12.25;;;;;;;8.10;55.09;100315.69;4946646;28;20088;-66
2022/03/19 03:52:17;;;;;;;16.08;11.63;;;;;;;8.34;52.93;100349.75;4966020;28;20053;-66
2022/03/19 03:54:43;;;;;;;16.42;10.32;;;;;;;8.37;48.01;100351.31;4959908;28;20507;-66
2022/03/19 03:57:08;;;;;;;15.27;10.00;;;;;;;8.47;48.34;100360.28;4965427;28;20030;-66
2022/03/19 03:59:34;;;;;;;16.30;10.13;;;;;;;8.50;44.61;100357.50;4963819;28;20062;-66
2022/03/19 04:01:59;;;;;;;13.65;9.85;;;;;;;8.48;44.21;100358.50;4966764;28;20553;-65
2022/03/19 04:04:25;;;;;;;13.73;9.30;;;;;;;8.41;43.06;100337.25;4997676;28;20049;-65
2022/03/19 04:06:50;;;;;;;14.32;8.88;;;;;;;8.59;42.12;100369.91;4963317;28;20493;-65
2022/03/19 04:09:16;;;;;;;12.57;8.52;;;;;;;8.60;40.20;100369.00;4949331;28;20026;-65
2022/03/19 04:11:41;;;;;;;12.75;8.60;;;;;;;8.42;37.98;100329.44;4958193;28;20034;-66
2022/03/19 04:14:08;;;;;;;11.75;8.80;;;;;;;8.62;39.60;100368.94;4965089;28;20038;-67
2022/03/19 04:16:33;;;;;;;13.52;8.85;;;;;;;8.60;39.36;100363.00;4963693;28;20030;-66
2022/03/19 04:18:58;;;;;;;13.07;8.77;;;;;;;8.58;40.33;100378.63;4963242;28;20035;-66
2022/03/19 04:21:24;;;;;;;12.63;9.23;;;;;;;8.48;40.68;100374.91;4964095;28;20030;-66
2022/03/19 04:23:50;;;;;;;11.80;8.70;;;;;;;8.45;41.26;100373.31;4964633;28;20023;-65
2022/03/19 04:26:15;;;;;;;12.68;8.90;;;;;;;8.46;42.13;100384.53;4965263;28;20057;-65
2022/03/19 04:28:40;;;;;;;13.32;9.23;;;;;;;8.40;42.06;100377.06;4947370;28;20042;-65
2022/03/19 04:31:06;;;;;;;16.88;9.30;;;;;;;8.41;42.42;100368.34;4965362;28;20038;-66
2022/03/19 04:33:32;;;;;;;14.43;9.45;;;;;;;8.03;42.64;100330.75;4959362;28;20042;-65
2022/03/19 04:38:41;;;;;;;14.38;9.57;;;;;;;7.53;42.53;100261.91;4993409;28;20042;-65
2022/03/19 04:41:06;;;;;;;13.95;8.95;;;;;;;8.25;42.44;100377.03;4963723;28;20027;-67
2022/03/19 04:43:32;;;;;;;14.57;9.52;;;;;;;8.23;42.69;100373.69;4965760;28;20065;-66
2022/03/19 04:45:57;;;;;;;14.60;9.63;;;;;;;8.03;43.63;100343.72;4957838;28;20084;-65
2022/03/19 04:48:22;;;;;;;15.05;9.55;;;;;;;7.97;42.70;100335.44;4965075;28;20050;-65
2022/03/19 04:50:48;;;;;;;13.75;9.80;;;;;;;8.18;42.95;100377.47;4962070;28;20219;-66
2022/03/19 04:53:14;;;;;;;14.82;9.70;;;;;;;8.21;42.77;100382.44;4965747;28;20130;-66
2022/03/19 04:55:40;;;;;;;14.05;9.18;;;;;;;7.97;43.44;100336.25;4963047;28;20324;-66
2022/03/19 04:58:06;;;;;;;16.15;9.63;;;;;;;8.23;42.98;100372.81;4948221;28;20085;-66
2022/03/19 05:00:32;;;;;;;15.52;9.65;;;;;;;8.31;43.26;100381.03;4948440;28;20110;-66
2022/03/19 05:02:58;;;;;;;13.95;9.98;;;;;;;8.18;42.92;100374.88;4990543;28;20019;-65
2022/03/19 05:05:24;;;;;;;12.80;9.38;;;;;;;8.17;43.01;100360.22;4979063;28;20030;-66
2022/03/19 05:07:54;;;;;;;13.80;9.60;;;;;;;8.23;42.44;100365.91;4952357;28;20034;-66
2022/03/19 05:13:04;;;;;;;14.88;9.38;;;;;;;8.31;43.05;100362.88;4963570;28;20818;-66
2022/03/19 05:15:30;;;;;;;15.40;10.65;;;;;;;8.25;42.67;100365.78;4945043;28;20054;-65
2022/03/19 05:17:55;;;;;;;13.07;9.32;;;;;;;8.20;42.07;100362.66;4996639;28;20030;-66
2022/03/19 05:20:21;;;;;;;16.80;10.15;;;;;;;8.13;43.34;100348.38;4961313;28;20361;-66
2022/03/19 05:22:46;;;;;;;16.38;10.30;;;;;;;8.07;42.94;100355.56;4964094;28;20023;-67
2022/03/19 05:25:11;;;;;;;13.27;9.05;;;;;;;8.16;43.55;100371.50;4962524;28;20037;-66
2022/03/19 05:27:38;;;;;;;13.13;9.50;;;;;;;7.76;44.04;100316.72;4965428;28;20038;-66
2022/03/19 05:30:04;;;;;;;13.93;9.38;;;;;;;8.05;44.66;100369.53;4962586;28;20086;-65
2022/03/19 05:32:30;;;;;;;13.90;9.55;;;;;;;8.08;44.88;100369.34;4947300;28;20118;-66
2022/03/19 05:34:55;;;;;;;14.52;10.05;;;;;;;8.00;44.65;100364.59;4963097;28;20068;-66
2022/03/19 05:37:21;;;;;;;15.80;10.00;;;;;;;8.00;45.46;100366.38;4960595;28;20028;-65
2022/03/19 05:39:46;;;;;;;16.50;10.45;;;;;;;8.02;45.67;100362.75;4967606;28;20030;-66
2022/03/19 05:42:12;;;;;;;14.18;9.98;;;;;;;7.95;45.23;100369.19;4962312;28;20484;-66
2022/03/19 05:44:38;;;;;;;15.75;10.32;;;;;;;7.75;45.43;100369.47;4965549;28;20030;-66
2022/03/19 05:47:04;;;;;;;15.98;10.32;;;;;;;7.76;46.27;100366.78;4962161;28;20027;-66
2022/03/19 05:49:30;;;;;;;16.60;10.93;;;;;;;7.84;45.94;100369.78;4965849;28;20031;-65
2022/03/19 05:51:56;;;;;;;15.95;9.73;;;;;;;7.85;46.43;100363.69;4963638;28;20664;-66
2022/03/19 05:54:22;;;;;;;15.85;10.32;;;;;;;7.56;45.89;100323.03;4958098;28;20118;-65
2022/03/19 05:56:47;;;;;;;14.20;10.00;;;;;;;7.78;46.20;100362.34;4962774;28;20137;-66
2022/03/19 05:59:13;;;;;;;15.40;10.43;;;;;;;7.81;46.79;100351.84;4946080;28;20035;-66
2022/03/19 06:01:39;;;;;;;24.08;9.88;;;;;;;7.88;46.34;100360.94;4962983;28;20031;-66
2022/03/19 06:04:05;;;;;;;15.15;10.93;;;;;;;7.74;46.02;100339.28;4946390;28;20038;-65
2022/03/19 06:06:30;;;;;;;15.00;10.23;;;;;;;7.79;46.48;100358.00;4962492;28;20141;-66
2022/03/19 06:08:57;;;;;;;15.73;10.55;;;;;;;7.75;46.21;100359.94;4961844;28;20100;-66
2022/03/19 06:11:22;;;;;;;15.25;9.63;;;;;;;7.73;46.35;100354.00;4960580;28;20034;-66
2022/03/19 06:13:48;;;;;;;16.75;10.77;;;;;;;7.85;45.82;100353.34;4964314;28;20517;-65
2022/03/19 06:16:15;;;;;;;14.45;9.98;;;;;;;7.57;46.17;100299.63;4955215;28;20027;-65
2022/03/19 06:18:45;;;;;;;15.18;10.15;;;;;;;7.85;46.07;100329.19;4964934;28;20473;-65
2022/03/19 06:21:11;;;;;;;14.73;10.13;;;;;;;7.70;44.79;100312.72;4961841;28;20101;-65
2022/03/19 06:23:37;;;;;;;15.00;9.65;;;;;;;7.80;44.55;100310.50;4963194;28;20498;-65
2022/03/19 06:26:02;;;;;;;14.70;10.27;;;;;;;8.03;44.39;100342.84;4962592;28;20038;-66
2022/03/19 06:28:27;;;;;;;16.05;10.48;;;;;;;8.00;44.56;100337.88;4963095;28;20088;-66
2022/03/19 06:30:53;;;;;;;14.20;10.05;;;;;;;7.90;44.63;100324.56;4963060;28;20030;-66
2022/03/19 06:33:18;;;;;;;14.05;9.95;;;;;;;8.03;44.18;100340.25;4979161;28;20047;-66
2022/03/19 06:38:29;;;;;;;17.77;10.45;;;;;;;8.18;43.62;100336.00;4962432;28;20342;-66
2022/03/19 06:40:55;;;;;;;14.02;10.18;;;;;;;8.25;43.34;100340.75;4954944;28;20031;-65
2022/03/19 06:43:21;;;;;;;16.50;10.70;;;;;;;8.23;43.53;100339.13;4961934;28;20093;-66
2022/03/19 06:45:47;;;;;;;14.85;10.35;;;;;;;8.18;43.73;100318.69;4960211;28;20038;-66
2022/03/19 06:48:12;;;;;;;17.48;10.70;;;;;;;8.26;42.54;100326.00;4957848;28;20550;-66
2022/03/19 06:50:38;;;;;;;17.30;9.98;;;;;;;8.32;42.95;100330.00;4964181;28;20532;-66
2022/03/19 06:53:04;;;;;;;17.05;11.00;;;;;;;8.29;43.53;100328.44;4961947;28;20015;-65
2022/03/19 06:55:30;;;;;;;15.68;10.13;;;;;;;8.33;43.96;100331.69;4962712;28;20065;-65
2022/03/19 06:57:56;;;;;;;17.10;10.85;;;;;;;8.35;43.04;100319.47;4943276;28;20110;-65
2022/03/19 07:00:22;;;;;;;15.55;10.38;;;;;;;8.30;43.41;100311.13;4962690;28;20030;-66
2022/03/19 07:02:52;;;;;;;17.33;10.27;;;;;;;8.24;43.36;100307.97;4961155;28;20027;-67
2022/03/19 07:05:28;;;;;;;15.38;10.30;;;;;;;8.13;43.56;100281.84;4944910;28;20113;-65
2022/03/19 07:07:55;;;;;;;16.20;10.90;;;;;;;8.01;43.52;100269.56;4946881;28;20141;-66
2022/03/19 07:10:20;;;;;;;16.08;11.10;;;;;;;8.15;43.44;100281.75;4958428;28;20498;-66
2022/03/19 07:12:48;;;;;;;15.57;10.40;;;;;;;8.43;43.46;100327.66;4962655;28;20119;-66
2022/03/19 07:15:15;;;;;;;15.00;10.50;;;;;;;8.53;42.71;100317.59;4961344;28;20030;-66
2022/03/19 07:17:43;;;;;;;15.65;10.45;;;;;;;8.59;43.40;100318.06;4945731;28;20031;-66
2022/03/19 07:20:09;;;;;;;16.48;10.73;;;;;;;8.60;43.25;100313.72;4965363;28;20067;-65
2022/03/19 07:22:47;;;;;;;16.85;10.80;;;;;;;8.47;43.98;100290.28;4949122;28;20354;-66
2022/03/19 07:25:12;;;;;;;15.30;10.10;;;;;;;8.60;43.57;100314.56;4953792;28;20506;-65
2022/03/19 07:27:38;;;;;;;15.77;10.95;;;;;;;8.50;43.15;100325.56;4957947;28;20050;-66
2022/03/19 07:30:04;;;;;;;14.15;10.55;;;;;;;8.55;43.58;100314.00;4950795;28;20161;-66
2022/03/19 07:32:29;;;;;;;15.20;11.30;;;;;;;8.59;43.12;100312.06;4979381;28;20046;-65
2022/03/19 07:34:55;;;;;;;17.52;11.43;;;;;;;8.64;43.01;100307.44;4950311;28;20173;-65
2022/03/19 07:37:20;;;;;;;15.38;10.77;;;;;;;8.55;43.30;100308.81;4948285;28;20035;-66
2022/03/19 07:39:45;;;;;;;17.33;11.75;;;;;;;8.57;43.04;100314.72;4948672;28;20047;-65
2022/03/19 07:42:11;;;;;;;16.65;10.73;;;;;;;8.30;43.72;100260.13;4979849;28;20142;-66
2022/03/19 07:44:36;;;;;;;16.75;12.05;;;;;;;8.55;43.13;100297.59;4979099;28;20031;-66
2022/03/19 07:47:02;;;;;;;16.63;11.45;;;;;;;8.32;42.93;100254.84;4949187;28;20089;-65
2022/03/19 07:49:27;;;;;;;17.05;11.32;;;;;;;8.54;43.00;100288.16;4961017;28;20034;-65
2022/03/19 07:51:55;;;;;;;17.48;11.18;;;;;;;8.55;43.11;100292.41;4946708;28;20118;-65
2022/03/19 07:54:23;;;;;;;17.10;10.98;;;;;;;8.59;43.55;100292.13;4981052;28;20482;-66
2022/03/19 07:56:51;;;;;;;16.90;11.05;;;;;;;8.28;44.25;100251.59;4950534;28;20045;-66
2022/03/19 07:59:16;;;;;;;15.90;11.50;;;;;;;8.61;43.50;100292.88;4971866;28;20027;-65
2022/03/19 08:01:42;;;;;;;14.75;10.77;;;;;;;8.69;43.39;100282.06;4960092;28;20042;-66
2022/03/19 08:04:07;;;;;;;16.30;12.05;;;;;;;8.60;43.02;100273.06;4979595;28;20724;-65
2022/03/19 08:06:33;;;;;;;16.40;11.30;;;;;;;8.33;43.60;100239.22;4963689;28;20085;-65
2022/03/19 08:08:58;;;;;;;14.52;9.75;;;;;;;8.36;43.11;100233.84;4964772;28;20141;-66
2022/03/19 08:11:23;;;;;;;16.90;10.40;;;;;;;8.45;43.06;100251.50;4960113;28;20490;-66
2022/03/19 08:13:49;;;;;;;16.35;11.60;;;;;;;8.66;43.94;100270.09;4984593;28;20035;-65
2022/03/19 08:16:15;;;;;;;18.10;10.95;;;;;;;8.50;43.28;100229.63;4984185;28;20035;-64
2022/03/19 08:18:41;;;;;;;15.70;11.07;;;;;;;8.38;43.24;100208.69;4984205;28;20030;-66
2022/03/19 08:21:06;;;;;;;16.88;11.15;;;;;;;8.69;42.99;100268.25;4993005;28;20073;-66
2022/03/19 08:23:34;;;;;;;16.48;11.38;;;;;;;8.59;43.23;100260.19;4956199;28;20547;-66
2022/03/19 08:25:59;;;;;;;16.77;10.65;;;;;;;8.50;43.02;100230.47;4985859;28;20039;-65
2022/03/19 08:28:25;;;;;;;17.15;10.35;;;;;;;8.80;43.23;100265.88;4958942;28;20038;-66
2022/03/19 08:30:51;;;;;;;15.30;10.63;;;;;;;8.81;43.38;100254.53;4917660;28;20999;-66
2022/03/19 08:33:17;;;;;;;16.75;11.23;;;;;;;8.73;43.54;100249.81;4954076;28;20035;-66
2022/03/19 08:35:42;;;;;;;15.45;11.10;;;;;;;8.76;43.00;100241.88;4981197;28;20402;-66
2022/03/19 08:40:51;;;;;;;17.17;12.15;;;;;;;8.48;44.12;100210.75;4956148;28;20919;-66
2022/03/19 08:43:17;;;;;;;16.52;11.52;;;;;;;8.81;42.99;100247.59;4981916;28;20035;-66
2022/03/19 08:45:42;;;;;;;15.63;11.05;;;;;;;8.71;43.71;100243.91;4963839;28;20042;-65
2022/03/19 08:48:09;;;;;;;14.80;10.63;;;;;;;8.76;43.88;100236.69;4963389;28;20030;-66
2022/03/19 08:50:34;;;;;;;18.58;11.32;;;;;;;8.72;43.54;100239.53;4962585;28;20764;-65
2022/03/19 08:53:00;;;;;;;16.95;11.88;;;;;;;8.76;42.96;100253.97;4965541;28;20023;-66
2022/03/19 08:55:25;;;;;;;16.05;11.40;;;;;;;8.70;44.09;100241.41;4957477;28;20444;-66
2022/03/19 08:57:51;;;;;;;19.77;12.23;;;;;;;8.70;44.51;100237.03;4930132;28;20031;-66
2022/03/19 09:00:17;;;;;;;16.98;11.25;;;;;;;8.72;44.58;100230.00;4979139;28;20409;-66
2022/03/19 09:02:42;;;;;;;15.75;11.35;;;;;;;8.49;43.73;100181.28;4946299;28;20065;-67
2022/03/19 09:05:08;;;;;;;16.60;11.98;;;;;;;8.82;43.83;100225.91;4961323;28;20113;-67
2022/03/19 09:07:34;;;;;;;16.67;11.57;;;;;;;8.82;43.60;100222.50;4979915;28;20054;-66
2022/03/19 09:10:00;;;;;;;18.35;12.32;;;;;;;8.80;42.68;100219.19;4949883;28;20620;-66
2022/03/19 09:12:25;;;;;;;18.25;11.90;;;;;;;8.76;44.03;100204.72;4958522;28;20045;-66
2022/03/19 09:14:52;;;;;;;16.25;11.02;;;;;;;8.56;43.46;100162.69;4972427;28;20023;-65
2022/03/19 09:17:17;;;;;;;16.75;11.82;;;;;;;8.91;43.32;100202.91;4959527;28;20039;-66
2022/03/19 09:19:43;;;;;;;15.52;11.65;;;;;;;9.01;42.95;100191.06;4960782;28;20081;-65
2022/03/19 09:22:08;;;;;;;16.85;12.00;;;;;;;9.16;42.83;100189.25;4957139;28;20035;-66
2022/03/19 09:24:34;;;;;;;18.58;12.40;;;;;;;8.91;42.81;100133.75;4979825;28;20446;-66
2022/03/19 09:26:59;;;;;;;16.35;11.30;;;;;;;9.30;42.10;100178.00;4958753;28;20097;-66
2022/03/19 09:29:26;;;;;;;20.23;12.00;;;;;;;9.46;41.86;100183.06;4950891;28;20426;-65
2022/03/19 09:31:52;;;;;;;16.25;12.18;;;;;;;9.20;41.82;100133.66;4979511;28;20088;-67
2022/03/19 09:34:17;;;;;;;17.30;11.85;;;;;;;9.51;42.27;100178.38;4977466;28;20039;-66
2022/03/19 09:36:46;;;;;;;15.68;11.38;;;;;;;9.58;42.28;100169.25;4940363;28;20590;-66
2022/03/19 09:39:14;;;;;;;19.73;11.82;;;;;;;9.65;41.47;100156.72;4901878;28;20030;-66
2022/03/19 09:41:41;;;;;;;15.85;11.40;;;;;;;9.72;42.51;100161.38;4945221;28;20029;-66
2022/03/19 09:44:12;;;;;;;15.98;11.82;;;;;;;9.81;40.62;100162.56;4956398;28;20051;-66
2022/03/19 09:46:37;;;;;;;15.57;11.83;;;;;;;9.82;41.72;100157.25;4969832;28;20126;-67
2022/03/19 09:49:03;;;;;;;17.90;11.02;;;;;;;9.84;42.13;100151.97;4985309;28;20453;-66
2022/03/19 09:51:33;;;;;;;17.23;12.15;;;;;;;9.83;41.47;100147.69;4981057;28;20038;-66
2022/03/19 09:53:59;;;;;;;16.00;11.75;;;;;;;9.94;41.71;100146.97;4971107;28;20520;-66
2022/03/19 09:56:25;;;;;;;15.52;11.82;;;;;;;9.98;41.45;100135.44;4960017;28;20032;-66
2022/03/19 09:58:52;;;;;;;17.15;12.05;;;;;;;9.84;40.24;100092.22;4963075;28;20034;-66
2022/03/19 10:01:18;;;;;;;18.73;12.45;;;;;;;9.88;41.07;100078.06;4940426;28;20038;-66
2022/03/19 10:03:44;;;;;;;16.77;12.05;;;;;;;10.06;41.46;100114.97;4939110;28;20042;-66
2022/03/19 10:08:56;;;;;;;16.25;11.70;;;;;;;10.00;40.76;100084.19;4953993;28;20140;-65
2022/03/19 10:11:21;;;;;;;15.55;10.88;;;;;;;10.15;41.19;100111.75;4960621;28;20058;-65
2022/03/19 10:13:50;;;;;;;17.58;11.85;;;;;;;10.25;40.86;100109.34;4964322;28;20568;-66
2022/03/19 10:16:25;;;;;;;16.50;12.03;;;;;;;10.23;40.75;100097.38;4950763;28;20479;-66
2022/03/19 10:19:03;;;;;;;16.50;12.00;;;;;;;10.38;40.32;100107.56;4958475;28;20026;-66
2022/03/19 10:21:29;;;;;;;16.38;11.35;;;;;;;10.39;40.54;100098.03;4908407;28;20027;-66
2022/03/19 10:23:59;;;;;;;17.00;11.30;;;;;;;10.45;40.41;100084.56;4946019;28;20116;-66
2022/03/19 10:26:34;;;;;;;15.77;12.10;;;;;;;10.46;40.28;100088.84;4981726;28;20090;-65
2022/03/19 10:29:02;;;;;;;16.40;11.75;;;;;;;10.48;40.19;100078.34;4985293;28;20038;-66
2022/03/19 10:31:37;;;;;;;17.25;12.05;;;;;;;10.36;40.00;100048.81;4963846;28;20058;-66
2022/03/19 10:34:05;;;;;;;20.48;12.18;;;;;;;10.55;40.73;100062.19;4963795;28;20078;-66
2022/03/19 10:36:36;;;;;;;17.88;12.85;;;;;;;10.68;40.31;100067.34;4945629;28;20034;-66
2022/03/19 10:39:13;;;;;;;18.65;12.77;;;;;;;10.60;40.82;100051.44;4961810;28;20034;-66
2022/03/19 10:41:39;;;;;;;22.25;12.63;;;;;;;10.76;39.84;100064.19;4961848;28;20054;-66
2022/03/19 10:44:13;;;;;;;18.13;12.32;;;;;;;10.57;40.16;100017.88;4972171;28;20031;-65
2022/03/19 10:46:41;;;;;;;17.83;12.25;;;;;;;10.82;40.07;100048.13;4954135;28;20070;-66
2022/03/19 10:49:14;;;;;;;18.10;11.93;;;;;;;10.84;40.52;100042.81;4981820;28;20352;-67
2022/03/19 10:51:40;;;;;;;17.13;12.85;;;;;;;10.73;39.58;99982.00;4955332;28;20035;-65
2022/03/19 10:54:06;;;;;;;18.63;13.00;;;;;;;11.06;39.75;100029.06;4981924;28;20027;-66
2022/03/19 10:56:32;;;;;;;18.80;12.68;;;;;;;10.91;40.12;100005.81;4982857;28;20557;-66
2022/03/19 10:58:57;;;;;;;17.83;12.93;;;;;;;10.91;39.68;100021.44;4960417;28;20122;-66
2022/03/19 11:01:23;;;;;;;18.30;13.93;;;;;;;11.02;40.16;100020.66;4993165;28;20121;-66
2022/03/19 11:03:49;;;;;;;16.60;12.32;;;;;;;11.16;40.13;100006.63;4939521;28;20169;-65
2022/03/19 11:06:15;;;;;;;18.80;12.88;;;;;;;11.14;40.18;100000.69;4897501;28;20047;-67
2022/03/19 11:08:43;;;;;;;17.73;13.07;;;;;;;11.37;38.45;99995.53;4953165;28;20027;-66
2022/03/19 11:11:17;;;;;;;18.25;13.27;;;;;;;11.32;39.45;99993.28;4958619;28;20037;-65
2022/03/19 11:13:46;;;;;;;18.83;13.40;;;;;;;11.39;38.96;99993.63;4963803;28;20556;-67
2022/03/19 11:16:13;;;;;;;17.65;12.93;;;;;;;11.33;39.72;99980.16;4948706;28;20776;-66
2022/03/19 11:18:42;;;;;;;17.05;12.60;;;;;;;11.28;39.34;99974.47;4948177;28;20026;-65
2022/03/19 11:21:09;;;;;;;19.92;13.80;;;;;;;11.25;39.71;99971.25;4965283;28;20174;-66
2022/03/19 11:24:04;;;;;;;21.05;13.73;;;;;;;11.32;39.79;99978.50;4989981;28;20046;-65
2022/03/19 11:26:30;;;;;;;18.08;13.30;;;;;;;11.27;40.02;99961.56;4945827;28;20491;-66
2022/03/19 11:28:57;;;;;;;18.60;13.10;;;;;;;11.31;39.41;99958.59;4967031;28;20050;-66
2022/03/19 11:31:30;;;;;;;18.38;13.80;;;;;;;11.38;39.32;99964.19;4985437;28;20039;-66